Time;durP1;ratioP1;P1;durP2;ratioP2;P2;SDS_P1;SDS_P2;PMS_P1;PMS_P2;Temp;Humidity;BMP_temperature;BMP_pressure;BME280_temperature;BME280_humidity;BME280_pressure;Samples;Min_cycle;Max_cycle;Signal;HPM_P1;HPM_P2
2022/01/26 00:06:31;;;;;;;80.53;44.97;;;;;;;5.66;100.00;103323.00;5082703;28;20035;-68
2022/01/26 00:08:57;;;;;;;82.50;46.70;;;;;;;5.40;100.00;103315.31;5091039;28;20474;-68
2022/01/26 00:11:23;;;;;;;80.68;43.60;;;;;;;5.50;100.00;103310.41;5102010;28;20534;-70
2022/01/26 00:13:50;;;;;;;74.18;42.33;;;;;;;5.54;100.00;103302.72;5099576;28;20125;-68
2022/01/26 00:16:26;;;;;;;73.25;42.30;;;;;;;5.61;100.00;103311.00;5068251;28;20155;-70
2022/01/26 00:18:55;;;;;;;78.70;43.17;;;;;;;5.49;100.00;103307.88;5097932;28;20031;-69
2022/01/26 00:21:34;;;;;;;75.63;44.17;;;;;;;5.42;100.00;103296.91;5101399;28;20036;-68
2022/01/26 00:24:10;;;;;;;74.25;42.58;;;;;;;5.33;100.00;103293.44;5095771;28;20027;-68
2022/01/26 00:29:15;;;;;;;79.28;43.45;;;;;;;5.42;100.00;103312.41;5082817;28;20039;-68
2022/01/26 00:40:19;;;;;;;75.07;41.45;;;;;;;5.53;100.00;103299.16;5103511;28;20053;-68
2022/01/26 00:42:47;;;;;;;74.68;41.38;;;;;;;5.61;100.00;103286.50;5100455;28;20035;-68
2022/01/26 00:45:13;;;;;;;75.72;43.70;;;;;;;5.54;100.00;103280.94;5101565;28;20144;-69
2022/01/26 00:47:40;;;;;;;75.22;42.70;;;;;;;5.51;100.00;103290.34;5094227;28;20161;-68
2022/01/26 00:50:10;;;;;;;73.20;40.00;;;;;;;5.52;100.00;103277.59;5081625;28;20042;-68
2022/01/26 00:52:39;;;;;;;75.38;42.63;;;;;;;5.54;100.00;103283.66;5078207;28;20390;-68
2022/01/26 00:55:07;;;;;;;77.93;45.13;;;;;;;5.50;100.00;103275.03;5064888;28;20028;-68
2022/01/26 00:57:33;;;;;;;76.68;43.65;;;;;;;5.46;100.00;103267.44;5082139;28;20040;-68
2022/01/26 00:59:59;;;;;;;72.75;43.45;;;;;;;5.53;100.00;103271.13;5093653;28;20042;-68
2022/01/26 01:02:25;;;;;;;75.75;43.67;;;;;;;5.56;100.00;103273.47;5102733;28;20047;-68
2022/01/26 01:04:50;;;;;;;81.30;44.95;;;;;;;5.49;100.00;103267.94;5089934;28;20032;-68
2022/01/26 01:07:20;;;;;;;75.32;43.50;;;;;;;5.47;100.00;103269.16;5085211;28;20044;-67
2022/01/26 01:09:46;;;;;;;83.85;45.75;;;;;;;5.28;100.00;103271.41;5105573;28;20501;-69
2022/01/26 01:12:12;;;;;;;79.65;44.20;;;;;;;5.22;100.00;103265.88;5089162;28;20028;-69
2022/01/26 01:14:41;;;;;;;84.15;45.72;;;;;;;5.34;100.00;103254.34;5092535;28;20028;-67
2022/01/26 01:17:11;;;;;;;89.75;47.00;;;;;;;5.09;100.00;103245.59;5071234;28;20594;-69
2022/01/26 01:19:39;;;;;;;84.50;45.15;;;;;;;5.14;100.00;103255.91;5106864;28;20459;-69
2022/01/26 01:30:39;;;;;;;87.82;45.80;;;;;;;5.33;100.00;103239.03;5090424;28;20050;-68
2022/01/26 01:33:07;;;;;;;;;;;;;;;5.15;100.00;103238.56;5070376;28;20028;-69
2022/01/26 01:35:36;;;;;;;89.75;45.95;;;;;;;5.18;100.00;103240.91;5105676;28;20365;-70
2022/01/26 01:38:09;;;;;;;90.95;48.75;;;;;;;5.19;100.00;103228.16;5100098;28;20079;-69
2022/01/26 01:40:36;;;;;;;90.57;47.17;;;;;;;5.20;100.00;103229.84;5093047;28;20465;-69
2022/01/26 01:43:03;;;;;;;93.68;49.85;;;;;;;5.22;100.00;103231.34;5098661;28;20040;-69
2022/01/26 01:45:34;;;;;;;99.55;49.83;;;;;;;5.13;100.00;103233.31;5105493;28;20088;-69
2022/01/26 01:48:00;;;;;;;96.20;49.47;;;;;;;5.29;100.00;103221.38;5100527;28;20047;-69
2022/01/26 01:50:25;;;;;;;100.03;49.25;;;;;;;5.28;100.00;103229.72;5105376;28;20100;-69
2022/01/26 01:52:58;;;;;;;98.43;50.03;;;;;;;5.15;100.00;103231.25;5102979;28;20481;-68
2022/01/26 01:55:27;;;;;;;100.07;49.08;;;;;;;5.21;100.00;103217.94;5105880;28;20028;-69
2022/01/26 01:57:54;;;;;;;91.35;47.83;;;;;;;5.09;100.00;103221.13;5081974;28;20054;-68
2022/01/26 02:00:20;;;;;;;90.97;47.97;;;;;;;5.02;100.00;103222.91;5083619;28;20075;-68
2022/01/26 02:02:47;;;;;;;89.38;48.08;;;;;;;5.05;100.00;103206.22;5084569;28;20123;-69
2022/01/26 02:05:12;;;;;;;97.50;49.20;;;;;;;5.23;100.00;103204.97;5085040;28;20020;-70
2022/01/26 02:07:38;;;;;;;93.30;48.28;;;;;;;5.15;100.00;103211.38;5083707;28;20035;-69
2022/01/26 02:10:04;;;;;;;97.47;48.33;;;;;;;5.19;100.00;103209.13;5064072;28;20032;-69
2022/01/26 02:12:32;;;;;;;89.85;47.25;;;;;;;5.37;100.00;103206.84;5083192;28;20035;-67
2022/01/26 02:15:06;;;;;;;90.13;45.72;;;;;;;5.42;100.00;103209.00;5089866;28;20024;-69
2022/01/26 02:53:44;;;;;;;101.07;48.58;;;;;;;4.99;100.00;103177.06;5084353;28;20089;-68
2022/01/26 02:56:45;;;;;;;103.07;50.70;;;;;;;5.17;100.00;103178.56;5081155;28;20158;-69
2022/01/26 02:59:16;;;;;;;100.82;49.05;;;;;;;5.26;100.00;103171.97;5077158;28;20085;-68
2022/01/26 03:01:57;;;;;;;97.15;47.88;;;;;;;5.08;100.00;103172.34;5084535;28;20036;-68
2022/01/26 03:09:27;;;;;;;103.63;51.08;;;;;;;5.07;100.00;103151.66;5084307;28;20093;-68
2022/01/26 03:11:54;;;;;;;105.03;50.65;;;;;;;4.86;100.00;103166.84;5083079;28;20502;-69
2022/01/26 03:17:06;;;;;;;107.60;51.38;;;;;;;5.20;100.00;103167.28;5079856;28;20417;-67
2022/01/26 03:19:39;;;;;;;111.88;51.28;;;;;;;4.92;100.00;103157.94;5082131;28;20031;-68
2022/01/26 03:35:19;;;;;;;102.85;48.67;;;;;;;5.22;100.00;103138.88;5102598;28;20753;-69
2022/01/26 03:37:54;;;;;;;102.00;47.72;;;;;;;5.13;100.00;103130.00;5102960;28;20437;-69
2022/01/26 03:40:29;;;;;;;108.40;51.83;;;;;;;5.19;100.00;103132.97;5102635;28;20051;-69
2022/01/26 03:42:56;;;;;;;106.07;50.45;;;;;;;5.07;100.00;103155.22;5097264;28;20054;-69
2022/01/26 03:45:21;;;;;;;108.18;51.40;;;;;;;5.10;100.00;103173.00;5085677;28;20035;-68
2022/01/26 03:47:47;;;;;;;106.07;51.25;;;;;;;5.26;100.00;103182.84;5103580;28;20359;-69
2022/01/26 03:50:12;;;;;;;106.25;50.20;;;;;;;5.27;100.00;103187.28;5101175;28;20080;-68
2022/01/26 03:52:37;;;;;;;109.13;49.92;;;;;;;5.13;100.00;103188.94;5101438;28;20041;-68
2022/01/26 03:55:04;;;;;;;102.30;49.35;;;;;;;5.36;100.00;103180.66;5101582;28;20389;-68
2022/01/26 03:57:30;;;;;;;105.82;51.40;;;;;;;5.40;100.00;103183.88;5101674;28;20894;-68
2022/01/26 03:59:56;;;;;;;99.03;48.08;;;;;;;5.44;100.00;103186.00;5100282;28;20454;-68
2022/01/26 04:02:21;;;;;;;105.30;50.45;;;;;;;5.30;100.00;103195.06;5065052;28;20052;-68
2022/01/26 04:04:52;;;;;;;107.28;50.22;;;;;;;5.23;100.00;103194.97;5082767;28;20032;-69
2022/01/26 04:07:18;;;;;;;108.88;49.78;;;;;;;5.41;100.00;103191.00;5081474;28;20150;-69
2022/01/26 04:09:43;;;;;;;106.75;49.47;;;;;;;5.18;100.00;103210.16;5081743;28;20039;-68
2022/01/26 04:12:09;;;;;;;104.10;49.20;;;;;;;5.42;100.00;103228.91;5042379;28;20025;-69
2022/01/26 04:14:35;;;;;;;113.00;52.10;;;;;;;4.60;100.00;103222.44;5103216;28;20034;-68
2022/01/26 04:17:01;;;;;;;103.93;49.08;;;;;;;5.27;100.00;103217.19;5102780;28;20054;-68
2022/01/26 04:19:29;;;;;;;94.40;45.58;;;;;;;5.03;100.00;103208.25;5103434;28;20489;-69
2022/01/26 04:22:35;;;;;;;58.53;30.33;;;;;;;4.78;100.00;103192.22;5102855;28;20023;-70
2022/01/26 04:24:51;;;;;;;56.67;29.88;;;;;;;4.86;100.00;103166.00;5101026;28;20035;-69
2022/01/26 04:27:33;;;;;;;59.38;30.13;;;;;;;4.90;100.00;103161.84;5066908;28;20096;-68
2022/01/26 04:29:59;;;;;;;59.35;30.55;;;;;;;4.82;100.00;103162.81;5101413;28;20438;-69
2022/01/26 04:32:24;;;;;;;56.97;29.30;;;;;;;4.81;100.00;103165.72;5086106;28;20047;-69
2022/01/26 04:34:50;;;;;;;53.72;28.95;;;;;;;4.81;100.00;103147.53;5103778;28;20080;-69
2022/01/26 04:37:37;;;;;;;58.35;29.08;;;;;;;4.72;100.00;103154.94;5084253;28;20028;-70
2022/01/26 04:40:05;;;;;;;57.20;29.73;;;;;;;4.77;100.00;103179.69;5085495;28;20537;-69
2022/01/26 04:45:07;;;;;;;55.80;28.98;;;;;;;4.44;100.00;103173.69;5084055;28;20456;-68
2022/01/26 04:47:32;;;;;;;57.10;30.33;;;;;;;4.30;100.00;103172.66;5102277;28;20032;-69
2022/01/26 04:49:59;;;;;;;61.35;30.92;;;;;;;4.26;100.00;103178.63;5098727;28;20024;-68
2022/01/26 04:52:24;;;;;;;59.22;31.17;;;;;;;4.47;100.00;103188.78;5070817;28;20476;-68
2022/01/26 04:54:50;;;;;;;58.53;31.70;;;;;;;4.15;100.00;103182.59;5103543;28;20027;-68
2022/01/26 04:57:15;;;;;;;55.17;31.23;;;;;;;4.28;100.00;103180.13;5074251;28;20218;-69
2022/01/26 04:59:41;;;;;;;58.25;30.08;;;;;;;4.51;100.00;103171.09;5069145;28;20035;-69
2022/01/26 05:02:06;;;;;;;57.83;30.88;;;;;;;4.66;100.00;103174.69;5085381;28;20035;-67
2022/01/26 05:04:31;;;;;;;55.90;29.40;;;;;;;4.64;100.00;103165.03;5086265;28;20046;-69
2022/01/26 05:06:58;;;;;;;61.85;31.75;;;;;;;4.63;100.00;103166.06;5103985;28;20027;-68
2022/01/26 05:09:24;;;;;;;59.88;30.55;;;;;;;4.87;100.00;103152.22;5101595;28;20468;-68
2022/01/26 05:11:52;;;;;;;55.67;29.42;;;;;;;4.38;100.00;103158.16;5103773;28;20024;-70
2022/01/26 05:14:18;;;;;;;54.90;28.50;;;;;;;4.63;100.00;103147.88;5090899;28;20024;-68
2022/01/26 05:16:43;;;;;;;58.85;31.52;;;;;;;4.55;100.00;103159.66;5089627;28;20024;-69
2022/01/26 05:19:09;;;;;;;58.08;30.77;;;;;;;4.60;100.00;103157.25;5085567;28;20028;-68
2022/01/26 05:21:35;;;;;;;68.30;33.55;;;;;;;4.29;100.00;103161.97;5104579;28;20036;-68
2022/01/26 05:24:01;;;;;;;63.55;33.30;;;;;;;4.60;100.00;103154.53;5088760;28;20065;-68
2022/01/26 05:26:27;;;;;;;68.10;33.78;;;;;;;4.50;100.00;103158.56;5065848;28;20054;-68
2022/01/26 05:28:53;;;;;;;61.97;33.30;;;;;;;4.23;100.00;103144.50;5079462;28;20024;-67
2022/01/26 05:31:19;;;;;;;68.43;33.70;;;;;;;4.21;100.00;103149.28;5079553;28;20341;-69
2022/01/26 05:33:44;;;;;;;70.60;35.13;;;;;;;4.23;100.00;103169.81;5080428;28;20087;-69
2022/01/26 05:36:09;;;;;;;67.82;33.58;;;;;;;3.86;100.00;103176.03;5080280;28;20422;-70
2022/01/26 05:38:35;;;;;;;65.35;34.97;;;;;;;3.99;100.00;103189.84;5063496;28;20048;-69
2022/01/26 05:41:02;;;;;;;63.88;33.67;;;;;;;3.93;100.00;103187.00;5082328;28;20094;-68
2022/01/26 05:43:29;;;;;;;64.57;32.88;;;;;;;3.75;100.00;103179.16;5086826;28;20131;-69
2022/01/26 05:45:58;;;;;;;60.95;34.33;;;;;;;4.07;100.00;103185.38;5084894;28;20054;-68
2022/01/26 05:48:24;;;;;;;61.60;32.10;;;;;;;4.10;100.00;103179.59;5090716;28;20034;-68
2022/01/26 05:50:52;;;;;;;66.22;33.25;;;;;;;4.23;100.00;103185.25;5088843;28;20331;-68
2022/01/26 05:53:21;;;;;;;67.82;33.47;;;;;;;4.44;100.00;103194.59;5103451;28;20059;-69
2022/01/26 05:55:53;;;;;;;64.10;34.15;;;;;;;3.87;100.00;103207.59;5106868;28;20548;-69
2022/01/26 05:58:19;;;;;;;62.28;32.42;;;;;;;3.79;100.00;103208.47;5103037;28;20110;-68
2022/01/26 06:00:44;;;;;;;70.28;34.63;;;;;;;3.97;100.00;103194.63;5105753;28;20593;-69
2022/01/26 06:03:10;;;;;;;62.00;32.20;;;;;;;4.42;100.00;103184.75;5102994;28;20193;-68
2022/01/26 06:05:35;;;;;;;67.47;35.50;;;;;;;4.50;100.00;103180.28;5106419;28;20465;-69
2022/01/26 06:08:03;;;;;;;65.15;32.95;;;;;;;4.60;100.00;103165.38;5101746;28;20059;-68
2022/01/26 06:10:29;;;;;;;69.65;33.70;;;;;;;4.44;100.00;103153.84;5067228;28;20031;-68
2022/01/26 06:12:57;;;;;;;63.22;34.08;;;;;;;4.61;100.00;103147.25;5083824;28;20035;-68
2022/01/26 06:15:22;;;;;;;64.72;33.55;;;;;;;4.50;100.00;103153.13;5046912;28;20156;-69
2022/01/26 06:17:49;;;;;;;75.97;37.55;;;;;;;4.28;100.00;103158.41;5067759;28;20366;-69
2022/01/26 06:20:15;;;;;;;70.53;37.15;;;;;;;4.44;100.00;103157.41;5104078;28;20028;-68
2022/01/26 06:22:40;;;;;;;66.63;33.55;;;;;;;4.44;100.00;103151.13;5105454;28;20042;-68
2022/01/26 06:25:07;;;;;;;72.18;36.20;;;;;;;4.42;100.00;103159.47;5086279;28;20103;-68
2022/01/26 06:27:35;;;;;;;70.28;36.38;;;;;;;4.41;100.00;103150.47;5103978;28;20034;-69
2022/01/26 06:30:01;;;;;;;65.70;34.25;;;;;;;4.52;100.00;103145.63;5086565;28;20127;-70
2022/01/26 06:32:28;;;;;;;66.43;33.30;;;;;;;4.19;100.00;103151.34;5065943;28;20073;-69
2022/01/26 06:34:53;;;;;;;70.50;35.08;;;;;;;4.24;100.00;103157.06;5085428;28;20028;-68
2022/01/26 06:37:19;;;;;;;65.25;35.20;;;;;;;4.45;100.00;103145.50;5065899;28;20486;-69
2022/01/26 06:39:45;;;;;;;65.25;34.13;;;;;;;4.19;100.00;103154.91;5066308;28;20047;-69
2022/01/26 06:42:14;;;;;;;67.00;34.05;;;;;;;4.26;100.00;103160.44;5083729;28;20482;-68
2022/01/26 06:49:52;;;;;;;53.15;29.38;;;;;;;4.18;100.00;103174.09;5083733;28;20032;-70
2022/01/26 06:52:18;;;;;;;60.60;30.58;;;;;;;4.50;100.00;103174.84;5095243;28;20416;-70
2022/01/26 06:54:43;;;;;;;59.72;29.08;;;;;;;4.44;100.00;103162.00;5105904;28;20503;-69
2022/01/26 06:57:09;;;;;;;56.47;28.13;;;;;;;4.52;100.00;103149.16;5102705;28;20028;-68
2022/01/26 06:59:35;;;;;;;54.78;29.15;;;;;;;4.29;100.00;103153.81;5102431;28;20030;-68
2022/01/26 07:02:00;;;;;;;53.28;28.40;;;;;;;4.37;100.00;103162.72;5102054;28;20055;-68
2022/01/26 07:04:26;;;;;;;54.92;27.50;;;;;;;4.51;100.00;103166.53;5084602;28;20487;-68
2022/01/26 07:06:51;;;;;;;53.70;29.77;;;;;;;4.45;100.00;103178.13;5086606;28;20027;-69
2022/01/26 07:09:17;;;;;;;56.78;28.38;;;;;;;4.30;100.00;103194.38;5100101;28;20027;-70
2022/01/26 07:11:45;;;;;;;54.08;27.90;;;;;;;4.03;100.00;103202.03;5086631;28;20439;-70
2022/01/26 07:14:11;;;;;;;50.97;27.75;;;;;;;4.23;100.00;103194.25;5097058;28;20095;-69
2022/01/26 07:19:50;;;;;;;56.20;30.35;;;;;;;4.32;100.00;103197.75;5100895;28;20054;-70
2022/01/26 07:22:11;;;;;;;55.22;29.13;;;;;;;4.46;100.00;103197.97;5091348;28;20035;-69
2022/01/26 07:24:37;;;;;;;55.45;29.50;;;;;;;4.31;100.00;103196.06;5063428;28;20029;-69
2022/01/26 07:27:04;;;;;;;55.08;29.88;;;;;;;4.60;100.00;103205.31;5065060;28;20040;-68
2022/01/26 07:29:31;;;;;;;52.75;26.48;;;;;;;4.63;100.00;103199.50;5061457;28;20036;-69
2022/01/26 07:31:58;;;;;;;50.45;28.15;;;;;;;4.55;100.00;103191.44;5082023;28;20120;-68
2022/01/26 07:34:24;;;;;;;48.58;27.45;;;;;;;4.59;100.00;103200.91;5081212;28;20047;-68
2022/01/26 07:36:53;;;;;;;54.03;27.48;;;;;;;4.78;100.00;103192.22;5084849;28;20024;-68
2022/01/26 07:39:29;;;;;;;52.47;27.17;;;;;;;4.88;100.00;103194.66;5061270;28;20045;-69
2022/01/26 07:41:55;;;;;;;53.50;27.20;;;;;;;4.58;100.00;103196.50;5084652;28;20118;-68
2022/01/26 07:44:20;;;;;;;48.50;24.90;;;;;;;4.58;100.00;103196.50;5087096;28;20111;-70
2022/01/26 07:46:46;;;;;;;44.15;24.65;;;;;;;4.76;100.00;103205.16;5079135;28;20107;-69
2022/01/26 07:49:12;;;;;;;54.10;27.02;;;;;;;4.49;100.00;103203.03;5088380;28;20122;-68
2022/01/26 07:51:38;;;;;;;50.03;26.70;;;;;;;4.52;100.00;103206.22;5082071;28;20051;-68
2022/01/26 07:54:03;;;;;;;47.50;24.80;;;;;;;4.88;100.00;103197.38;5082403;28;20494;-68
2022/01/26 07:56:29;;;;;;;50.80;26.05;;;;;;;4.95;100.00;103194.75;5082443;28;20414;-69
2022/01/26 07:58:56;;;;;;;49.13;25.25;;;;;;;4.85;100.00;103205.06;5082025;28;20031;-69
2022/01/26 08:01:23;;;;;;;47.78;26.40;;;;;;;4.89;100.00;103206.41;5085283;28;20461;-68
2022/01/26 08:03:49;;;;;;;50.35;25.13;;;;;;;4.48;100.00;103202.19;5089813;28;20056;-69
2022/01/26 08:06:15;;;;;;;43.70;22.98;;;;;;;4.36;100.00;103203.66;5071015;28;20066;-67
2022/01/26 08:08:40;;;;;;;46.92;24.67;;;;;;;4.02;100.00;103211.22;5098288;28;20140;-68
2022/01/26 08:11:05;;;;;;;48.80;23.70;;;;;;;4.27;100.00;103199.31;5082941;28;20085;-68
2022/01/26 08:13:31;;;;;;;46.65;24.10;;;;;;;4.12;100.00;103204.69;5095791;28;20530;-68
2022/01/26 08:15:57;;;;;;;48.65;23.70;;;;;;;4.05;100.00;103196.44;5105196;28;20019;-69
2022/01/26 08:18:24;;;;;;;44.50;24.25;;;;;;;4.10;100.00;103194.03;5100547;28;20038;-68
2022/01/26 08:20:50;;;;;;;44.38;23.58;;;;;;;4.11;100.00;103192.16;5098369;28;20039;-69
2022/01/26 08:23:17;;;;;;;49.20;23.35;;;;;;;4.35;100.00;103201.97;5081189;28;20032;-68
2022/01/26 08:25:43;;;;;;;49.53;24.35;;;;;;;4.31;100.00;103189.78;5084188;28;20031;-69
2022/01/26 08:28:16;;;;;;;49.55;25.08;;;;;;;4.47;100.00;103199.66;5079183;28;20818;-68
2022/01/26 08:30:42;;;;;;;49.72;25.17;;;;;;;4.62;100.00;103200.53;5085401;28;20081;-69
2022/01/26 08:33:07;;;;;;;50.78;25.17;;;;;;;4.67;100.00;103197.25;5083480;28;20107;-70
2022/01/26 08:35:34;;;;;;;54.00;26.48;;;;;;;4.75;100.00;103195.31;5075699;28;20580;-70
2022/01/26 08:38:00;;;;;;;46.42;24.77;;;;;;;4.86;100.00;103190.47;5087372;27;20471;-68
2022/01/26 08:40:25;;;;;;;52.13;25.73;;;;;;;4.76;100.00;103188.00;5094474;28;20038;-68
2022/01/26 08:42:53;;;;;;;52.70;26.42;;;;;;;4.90;100.00;103172.72;5100051;28;20028;-67
2022/01/26 08:45:19;;;;;;;49.13;25.45;;;;;;;4.71;100.00;103180.41;5083509;28;20019;-69
2022/01/26 08:47:47;;;;;;;47.05;25.42;;;;;;;4.57;100.00;103178.50;5093663;28;20104;-67
2022/01/26 08:50:14;;;;;;;53.35;27.10;;;;;;;5.15;100.00;103179.59;5085975;28;20594;-68
2022/01/26 08:52:39;;;;;;;46.22;23.92;;;;;;;4.88;100.00;103180.25;5063691;28;20032;-68
2022/01/26 08:55:06;;;;;;;50.97;26.13;;;;;;;5.13;100.00;103187.09;5082050;28;20035;-68
2022/01/26 08:57:31;;;;;;;48.22;26.35;;;;;;;5.31;100.00;103186.72;5077333;28;20119;-69
2022/01/26 08:59:58;;;;;;;45.50;25.00;;;;;;;5.33;100.00;103183.81;5068232;28;20110;-68
2022/01/26 09:02:25;;;;;;;46.47;24.45;;;;;;;5.30;100.00;103170.56;5101575;28;20088;-68
2022/01/26 09:04:50;;;;;;;43.55;24.15;;;;;;;5.22;100.00;103176.13;5103900;28;20024;-68
2022/01/26 09:07:20;;;;;;;39.58;22.70;;;;;;;5.22;100.00;103171.50;5073388;28;20055;-68
2022/01/26 09:09:46;;;;;;;39.33;21.73;;;;;;;5.21;100.00;103182.56;5081410;28;20020;-68
2022/01/26 09:12:15;;;;;;;35.40;20.92;;;;;;;5.19;100.00;103181.94;5081313;28;20501;-68
2022/01/26 09:14:43;;;;;;;37.22;20.80;;;;;;;5.40;100.00;103192.88;5074112;28;20113;-68
2022/01/26 09:17:11;;;;;;;33.75;20.75;;;;;;;5.12;100.00;103192.72;5067638;28;20027;-68
2022/01/26 09:19:38;;;;;;;32.53;21.13;;;;;;;5.39;100.00;103176.75;5080796;28;20455;-68
2022/01/26 09:22:10;;;;;;;34.80;20.77;;;;;;;5.53;100.00;103174.00;5078946;28;20031;-69
2022/01/26 09:24:38;;;;;;;31.25;20.17;;;;;;;5.47;100.00;103168.47;5083134;28;20054;-68
2022/01/26 09:27:07;;;;;;;31.38;18.45;;;;;;;5.60;100.00;103173.22;5083160;28;20126;-68
2022/01/26 09:29:34;;;;;;;33.22;19.65;;;;;;;5.50;100.00;103171.66;5082042;28;20027;-68
2022/01/26 09:32:00;;;;;;;30.10;19.45;;;;;;;5.67;100.00;103166.84;5085517;28;20393;-68
2022/01/26 09:34:29;;;;;;;34.42;20.55;;;;;;;5.73;100.00;103176.09;5074126;28;20046;-68
2022/01/26 09:36:55;;;;;;;33.60;20.38;;;;;;;5.85;100.00;103171.84;5098653;28;20028;-68
2022/01/26 09:39:22;;;;;;;33.13;19.70;;;;;;;5.58;100.00;103186.19;5106136;28;20112;-69
2022/01/26 09:41:49;;;;;;;27.95;18.42;;;;;;;5.50;100.00;103187.97;5106474;28;20038;-69
2022/01/26 09:44:18;;;;;;;31.45;19.27;;;;;;;5.70;100.00;103192.81;5100358;28;20031;-69
2022/01/26 09:46:45;;;;;;;34.92;19.77;;;;;;;5.81;100.00;103192.31;5088569;28;20489;-69
2022/01/26 09:49:16;;;;;;;35.08;19.70;;;;;;;5.80;100.00;103184.34;5098800;28;20075;-70
2022/01/26 09:51:43;;;;;;;29.55;18.33;;;;;;;5.75;100.00;103182.19;5084373;28;20040;-69
2022/01/26 09:54:15;;;;;;;29.67;17.88;;;;;;;5.84;100.00;103172.88;5084585;28;20180;-69
2022/01/26 09:56:42;;;;;;;28.23;17.77;;;;;;;5.88;100.00;103174.16;5084890;28;20297;-70
2022/01/26 09:59:08;;;;;;;30.52;18.70;;;;;;;5.95;100.00;103179.72;5080783;28;20028;-67
2022/01/26 10:01:45;;;;;;;33.55;20.52;;;;;;;5.64;100.00;103175.38;5085176;28;20034;-68
2022/01/26 10:04:25;;;;;;;30.75;19.23;;;;;;;5.61;100.00;103167.59;5083412;28;20651;-68
2022/01/26 10:15:47;;;;;;;36.97;21.02;;;;;;;5.97;100.00;103199.44;5084678;28;20062;-69
2022/01/26 10:18:17;;;;;;;36.00;19.98;;;;;;;6.10;100.00;103206.03;5098645;28;20369;-69
2022/01/26 10:20:50;;;;;;;32.42;19.98;;;;;;;6.09;100.00;103205.22;5105014;28;20626;-70
2022/01/26 10:23:17;;;;;;;;;;;;;;;6.20;100.00;103198.41;5103241;28;20023;-68
2022/01/26 10:26:03;;;;;;;33.38;20.10;;;;;;;6.42;100.00;103178.25;5103799;28;20264;-67
2022/01/26 10:28:51;;;;;;;30.75;18.90;;;;;;;6.31;100.00;103180.69;5098257;28;20046;-69
2022/01/26 10:31:18;;;;;;;31.00;18.95;;;;;;;6.51;100.00;103183.56;5106989;28;20046;-68
2022/01/26 10:33:59;;;;;;;33.38;19.13;;;;;;;6.73;100.00;103187.94;5102041;28;20047;-68
2022/01/26 10:36:46;;;;;;;37.03;19.55;;;;;;;6.39;100.00;103191.44;5081186;28;20084;-68
2022/01/26 10:39:32;;;;;;;35.80;19.75;;;;;;;6.80;100.00;103186.13;5090078;28;20048;-68
2022/01/26 10:42:02;;;;;;;33.92;20.83;;;;;;;6.74;100.00;103195.09;5105717;28;20024;-68
2022/01/26 10:44:34;;;;;;;32.78;19.58;;;;;;;6.91;100.00;103197.50;5100917;28;20023;-68
2022/01/26 10:47:02;;;;;;;33.88;20.17;;;;;;;6.74;100.00;103186.03;5105463;28;20062;-67
2022/01/26 10:52:40;;;;;;;33.97;19.30;;;;;;;6.96;100.00;103167.75;5104979;28;20155;-68
2022/01/26 10:55:06;;;;;;;30.83;19.98;;;;;;;6.88;100.00;103178.81;5098702;28;20161;-68
2022/01/26 10:57:33;;;;;;;36.90;18.23;;;;;;;6.79;100.00;103178.13;5065210;28;20036;-68
2022/01/26 10:59:59;;;;;;;29.58;17.77;;;;;;;7.00;100.00;103177.19;5078910;28;20028;-68
2022/01/26 11:02:32;;;;;;;30.38;18.60;;;;;;;6.85;100.00;103168.31;5083656;28;20394;-69
2022/01/26 11:04:57;;;;;;;34.50;19.35;;;;;;;6.92;100.00;103161.00;5082838;28;20032;-69
2022/01/26 11:07:40;;;;;;;34.08;17.50;;;;;;;7.06;100.00;103161.94;5102340;28;20096;-68
2022/01/26 11:10:07;;;;;;;28.00;17.90;;;;;;;6.92;100.00;103161.84;5106925;28;20038;-69
2022/01/26 11:12:34;;;;;;;29.73;18.70;;;;;;;6.97;100.00;103164.81;5104301;28;20020;-68
2022/01/26 11:15:16;;;;;;;30.63;17.40;;;;;;;7.02;100.00;103161.50;5087843;28;20285;-69
2022/01/26 11:17:44;;;;;;;28.08;17.63;;;;;;;7.06;100.00;103159.19;5080848;28;20028;-68
2022/01/26 11:20:21;;;;;;;30.27;18.55;;;;;;;7.12;100.00;103167.41;5089570;28;20031;-68
2022/01/26 11:22:52;;;;;;;28.50;18.02;;;;;;;7.08;100.00;103157.09;5080800;28;20498;-68
2022/01/26 11:25:18;;;;;;;27.15;16.35;;;;;;;6.93;100.00;103149.88;5084195;28;20440;-69
2022/01/26 11:27:46;;;;;;;29.20;16.90;;;;;;;7.40;100.00;103154.75;5081019;28;20478;-68
2022/01/26 11:30:31;;;;;;;31.40;17.45;;;;;;;7.28;100.00;103147.13;5087387;28;20473;-69
2022/01/26 11:32:57;;;;;;;27.92;16.77;;;;;;;7.28;100.00;103149.00;5086255;28;20028;-68
2022/01/26 11:35:26;;;;;;;27.38;16.67;;;;;;;7.47;100.00;103137.31;5082760;28;20482;-68
2022/01/26 11:38:14;;;;;;;29.48;17.75;;;;;;;7.12;100.00;103136.56;5082373;28;20050;-69
2022/01/26 11:46:22;;;;;;;25.25;16.55;;;;;;;7.49;100.00;103139.84;5083313;28;20051;-67
2022/01/26 11:49:00;;;;;;;30.48;16.40;;;;;;;7.14;100.00;103145.38;5064912;28;20375;-67
2022/01/26 11:51:41;;;;;;;22.58;15.43;;;;;;;7.60;100.00;103144.72;5084234;28;20126;-68
2022/01/26 11:54:25;;;;;;;29.67;15.70;;;;;;;7.34;100.00;103143.56;5084489;28;20490;-68
2022/01/26 11:57:04;;;;;;;26.85;15.13;;;;;;;7.19;100.00;103151.06;5093818;28;20223;-68
2022/01/26 11:59:33;;;;;;;25.20;14.75;;;;;;;7.04;100.00;103153.94;5098222;28;20122;-67
2022/01/26 12:02:04;;;;;;;25.10;14.68;;;;;;;7.09;100.00;103156.91;5069560;28;20454;-67
2022/01/26 12:04:33;;;;;;;25.63;15.40;;;;;;;7.11;100.00;103164.88;5102838;28;20130;-68
2022/01/26 12:07:18;;;;;;;25.80;14.57;;;;;;;7.26;100.00;103149.22;5102398;28;20612;-69
2022/01/26 12:09:43;;;;;;;30.42;15.70;;;;;;;7.01;100.00;103154.34;5100828;28;20348;-69
2022/01/26 12:12:17;;;;;;;26.45;14.82;;;;;;;7.30;100.00;103146.94;5101449;28;20016;-68
2022/01/26 12:14:45;;;;;;;26.40;16.00;;;;;;;7.41;100.00;103134.56;5099520;28;20489;-68
2022/01/26 12:17:23;;;;;;;24.55;14.90;;;;;;;7.34;100.00;103131.81;5101306;28;20176;-69
2022/01/26 12:20:09;;;;;;;22.95;14.57;;;;;;;7.29;100.00;103146.06;5101589;28;20043;-68
2022/01/26 12:36:14;;;;;;;20.33;13.63;;;;;;;7.44;100.00;103121.34;5104182;27;20456;-68
2022/01/26 12:38:44;;;;;;;25.73;14.82;;;;;;;7.36;100.00;103116.94;5101069;28;20038;-68
2022/01/26 12:41:31;;;;;;;26.83;14.20;;;;;;;7.30;100.00;103117.75;5103474;28;20051;-68
2022/01/26 12:44:15;;;;;;;25.35;14.50;;;;;;;7.21;100.00;103115.41;5085189;28;20116;-69
2022/01/26 12:46:41;;;;;;;21.38;13.48;;;;;;;7.09;100.00;103115.97;5099090;28;20038;-70
2022/01/26 12:49:14;;;;;;;25.85;14.18;;;;;;;7.15;100.00;103114.34;5103833;28;20023;-69
2022/01/26 12:51:45;;;;;;;22.65;14.02;;;;;;;7.25;100.00;103103.88;5102756;28;20019;-69
2022/01/26 12:54:11;;;;;;;27.23;15.52;;;;;;;7.45;100.00;103105.84;5102646;28;20469;-69
2022/01/26 12:56:37;;;;;;;25.58;15.40;;;;;;;7.42;100.00;103109.81;5104857;28;20035;-68
2022/01/26 12:59:12;;;;;;;28.27;16.23;;;;;;;7.70;100.00;103101.47;5098488;28;20030;-69
2022/01/26 13:01:38;;;;;;;29.63;15.65;;;;;;;7.51;100.00;103094.94;5101012;28;20047;-69
2022/01/26 13:04:07;;;;;;;29.55;15.93;;;;;;;7.34;100.00;103104.53;5104437;28;20031;-68
2022/01/26 13:06:39;;;;;;;31.83;16.08;;;;;;;7.31;100.00;103089.44;5101211;28;20378;-69
2022/01/26 13:09:18;;;;;;;33.88;17.13;;;;;;;7.17;100.00;103095.88;5104710;28;20055;-68
2022/01/26 13:11:48;;;;;;;27.98;16.55;;;;;;;6.95;100.00;103090.56;5102101;28;20477;-68
2022/01/26 13:14:38;;;;;;;29.25;16.70;;;;;;;7.40;100.00;103095.53;5102188;28;20059;-69
2022/01/26 13:17:55;;;;;;;33.20;16.80;;;;;;;6.91;100.00;103094.72;5102254;28;20104;-68
2022/01/26 13:26:11;;;;;;;31.40;17.55;;;;;;;7.17;100.00;103083.06;5103380;28;20066;-68
2022/01/26 13:28:53;;;;;;;36.13;19.75;;;;;;;7.29;100.00;103085.22;5098546;28;20385;-69